Time;durP1;ratioP1;P1;durP2;ratioP2;P2;SDS_P1;SDS_P2;PMS_P1;PMS_P2;Temp;Humidity;BMP_temperature;BMP_pressure;BME280_temperature;BME280_humidity;BME280_pressure;Samples;Min_cycle;Max_cycle;Signal;HPM_P1;HPM_P2
2023/07/29 00:01:31;;;;;;;6.13;4.45;;;20.10;99.90;;;;;;5075533;28;20029;-74
2023/07/29 00:03:56;;;;;;;5.38;4.25;;;20.10;99.90;;;;;;5075842;28;20033;-74
2023/07/29 00:06:22;;;;;;;10.23;5.82;;;20.10;99.90;;;;;;5076208;28;20078;-74
2023/07/29 00:08:48;;;;;;;5.43;4.28;;;20.10;99.90;;;;;;5075862;28;20032;-74
2023/07/29 00:11:13;;;;;;;7.55;4.78;;;20.20;99.90;;;;;;5076865;28;20028;-73
2023/07/29 00:13:39;;;;;;;4.93;4.15;;;20.10;99.90;;;;;;5075730;28;20104;-74
2023/07/29 00:16:06;;;;;;;6.25;4.63;;;20.10;99.90;;;;;;5070555;28;20045;-74
2023/07/29 00:18:32;;;;;;;7.53;4.85;;;20.10;99.90;;;;;;5057418;28;20025;-74
2023/07/29 00:20:57;;;;;;;7.15;5.25;;;20.10;99.90;;;;;;5057627;28;20027;-74
2023/07/29 00:23:23;;;;;;;6.25;4.75;;;20.10;99.90;;;;;;5057240;28;20806;-74
2023/07/29 00:25:49;;;;;;;6.20;5.05;;;20.00;99.90;;;;;;5076364;28;20026;-74
2023/07/29 00:28:14;;;;;;;6.20;4.35;;;20.00;99.90;;;;;;5076762;28;20094;-74
2023/07/29 00:30:40;;;;;;;8.40;5.45;;;20.00;99.90;;;;;;5074978;28;20020;-74
2023/07/29 00:33:06;;;;;;;8.43;4.72;;;20.00;99.90;;;;;;5076414;28;20025;-74
2023/07/29 00:35:31;;;;;;;5.60;4.68;;;19.90;99.90;;;;;;5073641;28;20024;-73
2023/07/29 00:37:57;;;;;;;6.35;4.45;;;19.80;99.90;;;;;;5073616;28;20488;-74
2023/07/29 00:40:23;;;;;;;7.28;5.05;;;19.90;99.90;;;;;;5074987;28;20028;-74
2023/07/29 00:42:50;;;;;;;6.00;5.03;;;19.80;99.90;;;;;;5074502;28;20481;-74
2023/07/29 00:45:16;;;;;;;6.50;5.30;;;19.80;99.90;;;;;;5074804;28;20107;-74
2023/07/29 00:47:43;;;;;;;5.55;4.95;;;19.70;99.90;;;;;;5075973;28;20515;-74
2023/07/29 00:50:11;;;;;;;6.80;5.28;;;19.70;99.90;;;;;;5075530;28;20021;-74
2023/07/29 00:52:37;;;;;;;6.20;4.80;;;19.70;99.90;;;;;;5075619;28;20718;-74
2023/07/29 00:55:04;;;;;;;5.55;5.05;;;19.70;99.90;;;;;;5073627;28;20016;-73
2023/07/29 00:57:30;;;;;;;7.43;5.20;;;19.60;99.90;;;;;;5074925;28;20116;-73
2023/07/29 00:59:56;;;;;;;7.95;5.15;;;19.60;99.90;;;;;;5075498;28;20028;-74
2023/07/29 01:02:22;;;;;;;6.18;4.78;;;19.60;99.90;;;;;;5074598;28;20039;-74
2023/07/29 01:04:58;;;;;;;7.22;4.88;;;19.60;99.90;;;;;;5074692;28;20115;-74
2023/07/29 01:07:23;;;;;;;5.45;4.95;;;19.60;99.90;;;;;;5073955;28;20036;-74
2023/07/29 01:10:07;;;;;;;6.82;5.32;;;19.60;99.90;;;;;;5073747;28;20099;-74
2023/07/29 01:12:56;;;;;;;5.53;4.88;;;19.60;99.90;;;;;;5073012;28;20488;-74
2023/07/29 01:15:23;;;;;;;7.28;5.22;;;19.50;99.90;;;;;;5074197;28;20016;-74
2023/07/29 01:18:19;;;;;;;7.95;5.43;;;19.50;99.90;;;;;;5073567;28;20024;-73
2023/07/29 01:20:47;;;;;;;6.30;5.55;;;19.50;99.90;;;;;;5069331;28;20033;-74
2023/07/29 01:23:13;;;;;;;8.63;5.13;;;19.50;99.90;;;;;;5075127;28;20702;-74
2023/07/29 01:25:39;;;;;;;8.18;5.65;;;19.40;99.90;;;;;;5073093;28;20032;-73
2023/07/29 01:28:05;;;;;;;6.65;5.75;;;19.40;99.90;;;;;;5074810;28;20396;-73
2023/07/29 01:30:40;;;;;;;6.38;5.03;;;19.40;99.90;;;;;;5074237;28;20044;-73
2023/07/29 01:33:35;;;;;;;6.00;5.25;;;19.50;99.90;;;;;;5062489;28;20044;-73
2023/07/29 01:36:13;;;;;;;8.70;5.63;;;19.50;99.90;;;;;;5057365;28;20029;-74
2023/07/29 01:38:41;;;;;;;6.30;5.03;;;19.40;99.90;;;;;;5073955;28;20082;-74
2023/07/29 01:41:08;;;;;;;8.23;5.18;;;19.40;99.90;;;;;;5075038;28;20024;-73
2023/07/29 01:43:41;;;;;;;6.00;4.93;;;19.40;99.90;;;;;;5074033;28;20024;-74
2023/07/29 01:46:07;;;;;;;6.47;5.18;;;19.40;99.90;;;;;;5074474;28;20029;-74
2023/07/29 01:48:33;;;;;;;6.20;4.90;;;19.40;99.90;;;;;;5073906;28;20214;-73
2023/07/29 01:50:58;;;;;;;6.65;5.20;;;19.30;99.90;;;;;;5074196;28;20028;-73
2023/07/29 01:53:24;;;;;;;8.90;5.22;;;19.40;99.90;;;;;;5074149;28;20033;-73
2023/07/29 01:55:49;;;;;;;6.07;4.85;;;19.40;99.90;;;;;;5074271;28;20439;-73
2023/07/29 01:58:15;;;;;;;5.75;4.97;;;19.40;99.90;;;;;;5073257;28;20047;-73
2023/07/29 02:00:41;;;;;;;10.20;4.60;;;19.40;99.90;;;;;;5074394;28;20094;-73
2023/07/29 02:03:07;;;;;;;6.72;5.60;;;19.40;99.90;;;;;;5074494;28;20024;-74
2023/07/29 02:05:32;;;;;;;7.22;5.18;;;19.40;99.90;;;;;;5074251;28;20028;-73
2023/07/29 02:07:58;;;;;;;6.47;5.40;;;19.40;99.90;;;;;;5074473;28;20029;-74
2023/07/29 02:10:23;;;;;;;5.68;4.93;;;19.40;99.90;;;;;;5074657;28;20033;-74
2023/07/29 02:12:49;;;;;;;7.03;5.80;;;19.40;99.90;;;;;;5067987;28;20029;-74
2023/07/29 02:15:15;;;;;;;7.22;5.25;;;19.40;99.90;;;;;;5067791;28;20048;-74
2023/07/29 02:17:43;;;;;;;5.72;5.10;;;19.40;99.90;;;;;;5073408;28;20017;-73
2023/07/29 02:20:10;;;;;;;6.10;5.20;;;19.40;99.90;;;;;;5071169;28;20048;-74
2023/07/29 02:22:36;;;;;;;7.18;4.82;;;19.30;99.90;;;;;;5074339;28;20036;-74
2023/07/29 02:25:02;;;;;;;5.43;4.93;;;19.30;99.90;;;;;;5074729;28;20024;-74
2023/07/29 02:27:28;;;;;;;5.93;4.60;;;19.30;99.90;;;;;;5074260;28;20021;-75
2023/07/29 02:29:54;;;;;;;6.18;5.05;;;19.30;99.90;;;;;;5073322;28;20024;-74
2023/07/29 02:32:20;;;;;;;7.07;5.28;;;19.30;99.90;;;;;;5068586;28;20019;-74
2023/07/29 02:34:46;;;;;;;6.95;5.45;;;19.20;99.90;;;;;;5063001;28;20025;-74
2023/07/29 02:37:11;;;;;;;8.73;5.22;;;19.20;99.90;;;;;;5069344;28;20485;-74
2023/07/29 02:39:37;;;;;;;7.20;5.00;;;19.10;99.90;;;;;;5071766;28;20017;-74
2023/07/29 02:42:03;;;;;;;5.95;5.03;;;19.10;99.90;;;;;;5056704;28;20028;-74
2023/07/29 02:44:29;;;;;;;5.93;5.25;;;19.10;99.90;;;;;;5057092;28;20456;-74
2023/07/29 02:46:55;;;;;;;6.80;4.80;;;19.10;99.90;;;;;;5048172;28;20026;-74
2023/07/29 02:49:24;;;;;;;6.75;5.65;;;19.10;99.90;;;;;;5063285;28;20021;-74
2023/07/29 02:51:49;;;;;;;8.52;5.85;;;19.00;99.90;;;;;;5072416;28;20485;-74
2023/07/29 02:54:15;;;;;;;7.80;5.65;;;19.10;99.90;;;;;;5070987;28;20090;-74
2023/07/29 02:56:41;;;;;;;6.63;5.65;;;19.00;99.90;;;;;;5071931;28;20035;-74
2023/07/29 02:59:06;;;;;;;9.88;5.32;;;19.10;99.90;;;;;;5072148;28;20025;-73
2023/07/29 03:01:32;;;;;;;7.80;5.18;;;19.10;99.90;;;;;;5074064;28;20028;-74
2023/07/29 03:03:58;;;;;;;5.93;5.07;;;19.10;99.90;;;;;;5075968;28;20036;-74
2023/07/29 03:06:24;;;;;;;6.20;4.95;;;19.00;99.90;;;;;;5069384;28;20025;-74
2023/07/29 03:08:49;;;;;;;12.25;5.93;;;19.00;99.90;;;;;;5066006;28;20024;-74
2023/07/29 03:11:16;;;;;;;8.43;5.22;;;19.00;99.90;;;;;;5054986;28;20025;-74
2023/07/29 03:13:42;;;;;;;6.78;5.32;;;19.00;99.90;;;;;;5065669;28;20025;-74
2023/07/29 03:16:09;;;;;;;5.45;4.95;;;18.90;99.90;;;;;;5063460;28;20013;-74
2023/07/29 03:18:35;;;;;;;6.63;5.22;;;18.90;99.90;;;;;;5068055;28;20025;-74
2023/07/29 03:21:01;;;;;;;9.05;5.50;;;18.90;99.90;;;;;;5051686;28;20075;-74
2023/07/29 03:23:28;;;;;;;7.72;5.18;;;18.90;99.90;;;;;;5065533;28;20048;-75
2023/07/29 03:25:56;;;;;;;5.30;4.70;;;18.90;99.90;;;;;;5062895;28;20104;-74
2023/07/29 03:28:25;;;;;;;6.70;5.25;;;18.90;99.90;;;;;;5067279;28;20020;-74
2023/07/29 03:30:50;;;;;;;10.85;6.22;;;18.90;99.90;;;;;;5062957;28;20025;-74
2023/07/29 03:33:16;;;;;;;7.35;5.40;;;18.90;99.90;;;;;;5066976;28;20038;-75
2023/07/29 03:35:44;;;;;;;5.82;4.90;;;18.90;99.90;;;;;;5061171;28;20054;-74
2023/07/29 03:38:11;;;;;;;6.18;5.57;;;18.80;99.90;;;;;;5059920;28;20505;-74
2023/07/29 03:40:37;;;;;;;8.45;6.28;;;18.80;99.90;;;;;;5055390;28;20025;-74
2023/07/29 03:43:03;;;;;;;5.95;5.32;;;18.80;99.90;;;;;;5066883;28;20108;-75
2023/07/29 03:45:28;;;;;;;6.28;5.30;;;18.80;99.90;;;;;;5062549;28;20052;-75
2023/07/29 03:47:54;;;;;;;6.00;5.40;;;18.80;99.90;;;;;;5066550;28;20194;-74
2023/07/29 03:50:20;;;;;;;5.28;4.78;;;18.80;99.90;;;;;;5062462;28;20025;-74
2023/07/29 03:52:45;;;;;;;7.93;5.88;;;18.70;99.90;;;;;;5057628;28;20016;-74
2023/07/29 03:55:12;;;;;;;10.00;5.68;;;18.70;99.90;;;;;;5063231;28;20124;-74
2023/07/29 03:57:37;;;;;;;7.53;6.00;;;18.70;99.90;;;;;;5067778;28;20024;-74
2023/07/29 04:00:04;;;;;;;9.40;5.57;;;18.70;99.90;;;;;;5063114;28;20021;-74
2023/07/29 04:02:29;;;;;;;9.30;5.85;;;18.70;99.90;;;;;;5068436;28;20082;-74
2023/07/29 04:04:55;;;;;;;6.13;5.20;;;18.70;99.90;;;;;;5062494;28;20036;-75
2023/07/29 04:07:20;;;;;;;10.50;6.20;;;18.70;99.90;;;;;;5066751;28;20093;-74
2023/07/29 04:09:46;;;;;;;7.82;5.85;;;18.70;99.90;;;;;;5062377;28;20097;-74
2023/07/29 04:12:12;;;;;;;8.23;5.78;;;18.70;99.90;;;;;;5066496;28;20021;-74
2023/07/29 04:14:38;;;;;;;6.10;4.88;;;18.70;99.90;;;;;;5060914;28;20032;-74
2023/07/29 04:17:04;;;;;;;9.55;5.75;;;18.70;99.90;;;;;;5066493;28;20020;-75
2023/07/29 04:19:29;;;;;;;7.20;5.85;;;18.70;99.90;;;;;;5062155;28;20021;-75
2023/07/29 04:21:55;;;;;;;12.45;5.95;;;18.60;99.90;;;;;;5054185;28;20116;-75
2023/07/29 04:24:23;;;;;;;7.90;5.95;;;18.60;99.90;;;;;;5060763;28;20124;-74
2023/07/29 04:26:49;;;;;;;8.15;5.68;;;18.60;99.90;;;;;;5066510;28;20051;-74
2023/07/29 04:29:14;;;;;;;6.95;5.70;;;18.60;99.90;;;;;;5062083;28;20081;-74
2023/07/29 04:31:40;;;;;;;7.47;6.00;;;18.60;99.90;;;;;;5067007;28;20496;-75
2023/07/29 04:34:06;;;;;;;6.50;5.38;;;18.50;99.90;;;;;;5061775;28;20021;-75
2023/07/29 04:36:32;;;;;;;6.88;5.88;;;18.50;99.90;;;;;;5066866;28;20082;-75
2023/07/29 04:38:58;;;;;;;6.90;5.63;;;18.50;99.90;;;;;;5061670;28;20021;-75
2023/07/29 04:41:23;;;;;;;7.90;6.82;;;18.40;99.90;;;;;;5065736;28;20047;-75
2023/07/29 04:43:49;;;;;;;7.97;6.00;;;18.50;99.90;;;;;;5061377;28;20493;-75
2023/07/29 04:46:15;;;;;;;10.38;5.95;;;18.50;99.90;;;;;;5065473;28;20020;-74
2023/07/29 04:48:41;;;;;;;7.68;6.15;;;18.40;99.90;;;;;;5059494;28;20035;-74
2023/07/29 04:51:07;;;;;;;6.40;5.47;;;18.40;99.90;;;;;;5065462;28;20029;-74
2023/07/29 04:53:34;;;;;;;9.77;6.72;;;18.40;99.90;;;;;;5059944;28;20032;-74
2023/07/29 04:56:00;;;;;;;9.80;5.80;;;18.40;99.90;;;;;;5065880;28;20021;-75
2023/07/29 04:58:28;;;;;;;8.35;6.18;;;18.50;99.90;;;;;;5060014;28;20052;-75
2023/07/29 05:00:54;;;;;;;6.78;6.07;;;18.50;99.90;;;;;;5064261;28;20399;-74
2023/07/29 05:03:20;;;;;;;10.23;6.53;;;18.50;99.90;;;;;;5061408;28;20021;-75
2023/07/29 05:05:45;;;;;;;8.02;6.20;;;18.50;99.90;;;;;;5048016;28;20050;-74
2023/07/29 05:08:11;;;;;;;6.80;6.10;;;18.50;99.90;;;;;;5061031;28;20028;-74
2023/07/29 05:10:36;;;;;;;8.10;5.97;;;18.50;99.90;;;;;;5047796;28;20032;-75
2023/07/29 05:13:02;;;;;;;10.05;6.05;;;18.60;99.90;;;;;;5061107;28;20036;-74
2023/07/29 05:15:28;;;;;;;6.30;5.45;;;18.60;99.90;;;;;;5066188;28;20112;-75
2023/07/29 05:17:53;;;;;;;6.60;5.95;;;18.70;99.90;;;;;;5061562;28;20025;-75
2023/07/29 05:20:19;;;;;;;5.80;5.20;;;18.80;99.90;;;;;;5059353;28;20029;-75
2023/07/29 05:22:45;;;;;;;6.60;5.45;;;18.80;99.90;;;;;;5052681;28;20138;-75
2023/07/29 05:25:10;;;;;;;6.45;5.22;;;18.80;99.90;;;;;;5064868;28;20028;-74
2023/07/29 05:27:36;;;;;;;7.30;6.22;;;18.80;99.90;;;;;;5060871;28;20025;-74
2023/07/29 05:30:02;;;;;;;8.88;5.50;;;18.90;99.90;;;;;;5066398;28;20074;-74
2023/07/29 05:32:28;;;;;;;8.32;5.45;;;18.90;99.90;;;;;;5061419;28;20069;-75
2023/07/29 05:34:53;;;;;;;8.15;6.53;;;19.00;99.90;;;;;;5047825;28;20051;-75
2023/07/29 05:37:19;;;;;;;7.22;5.10;;;19.00;99.90;;;;;;5061726;28;20087;-75
2023/07/29 05:39:45;;;;;;;7.45;5.53;;;19.10;99.90;;;;;;5065512;28;20025;-75
2023/07/29 05:42:10;;;;;;;8.25;5.57;;;19.10;99.90;;;;;;5058703;28;20025;-75
2023/07/29 05:44:36;;;;;;;7.03;5.32;;;19.20;99.90;;;;;;5064984;28;20472;-74
2023/07/29 05:47:01;;;;;;;7.18;5.53;;;19.30;99.90;;;;;;5058853;28;20017;-75
2023/07/29 05:49:27;;;;;;;10.73;6.15;;;19.40;99.90;;;;;;5062912;28;20036;-75
2023/07/29 05:51:53;;;;;;;8.77;5.20;;;19.50;99.90;;;;;;5059156;28;20520;-75
2023/07/29 05:54:19;;;;;;;6.43;5.57;;;19.50;99.90;;;;;;5064756;28;20051;-75
2023/07/29 05:56:44;;;;;;;10.00;5.53;;;19.70;99.90;;;;;;5059752;28;20017;-75
2023/07/29 05:59:10;;;;;;;9.20;5.55;;;19.70;99.90;;;;;;5056813;28;20582;-75
2023/07/29 06:01:36;;;;;;;12.15;5.47;;;19.80;99.90;;;;;;5056383;28;20080;-75
2023/07/29 06:04:01;;;;;;;6.93;5.57;;;19.90;99.90;;;;;;5057318;28;20064;-75
2023/07/29 06:06:27;;;;;;;10.23;6.65;;;20.10;99.90;;;;;;5055451;28;20068;-75
2023/07/29 06:08:53;;;;;;;8.27;6.57;;;20.20;99.90;;;;;;5056232;28;20050;-74
2023/07/29 06:11:19;;;;;;;7.43;6.15;;;20.20;99.90;;;;;;5057099;28;20492;-75
2023/07/29 06:13:45;;;;;;;8.35;6.15;;;20.40;99.90;;;;;;5057506;28;20029;-75
2023/07/29 06:16:11;;;;;;;7.25;6.00;;;20.50;99.90;;;;;;5065225;28;20065;-75
2023/07/29 06:18:36;;;;;;;8.23;6.53;;;20.50;99.90;;;;;;5068687;28;20120;-74
2023/07/29 06:21:07;;;;;;;9.90;6.00;;;20.60;99.90;;;;;;5061935;28;20032;-75
2023/07/29 06:23:33;;;;;;;;;;;20.60;99.90;;;;;;5071288;28;20059;-74
2023/07/29 06:26:00;;;;;;;11.25;7.13;;;20.70;99.90;;;;;;5072573;28;19905;-75
2023/07/29 06:28:26;;;;;;;8.77;5.97;;;20.80;99.90;;;;;;5061106;28;20029;-75
2023/07/29 06:30:52;;;;;;;10.65;6.30;;;20.80;99.90;;;;;;5055770;28;20048;-75
2023/07/29 06:33:17;;;;;;;9.10;7.13;;;21.00;99.90;;;;;;5055751;28;20025;-74
2023/07/29 06:35:43;;;;;;;7.40;6.55;;;21.10;99.90;;;;;;5056763;28;20036;-75
2023/07/29 06:38:09;;;;;;;9.82;6.55;;;21.20;99.90;;;;;;5069856;28;20027;-74
2023/07/29 06:40:34;;;;;;;7.97;6.30;;;21.30;99.90;;;;;;5069210;28;20033;-74
2023/07/29 06:43:00;;;;;;;9.75;6.13;;;21.40;99.90;;;;;;5065998;28;20031;-74
2023/07/29 06:45:26;;;;;;;10.30;6.90;;;21.50;99.90;;;;;;5064305;28;20559;-74
2023/07/29 06:47:52;;;;;;;7.53;6.32;;;21.60;99.90;;;;;;5071493;28;20024;-74
2023/07/29 06:50:18;;;;;;;8.18;5.85;;;21.70;99.90;;;;;;5068451;28;20023;-74
2023/07/29 06:52:43;;;;;;;6.95;6.03;;;21.80;99.90;;;;;;5071448;28;20032;-74
2023/07/29 06:55:09;;;;;;;9.95;6.50;;;21.90;99.90;;;;;;5067108;28;20052;-74
2023/07/29 06:57:35;;;;;;;6.45;5.85;;;22.00;99.90;;;;;;5067738;28;20042;-74
2023/07/29 07:00:01;;;;;;;7.68;5.97;;;22.00;99.90;;;;;;5062305;28;20036;-74
2023/07/29 07:02:26;;;;;;;10.82;6.00;;;22.20;99.90;;;;;;5066575;28;20074;-74
2023/07/29 07:04:52;;;;;;;10.45;5.97;;;22.20;99.90;;;;;;5057181;28;20063;-74
2023/07/29 07:07:18;;;;;;;6.10;5.50;;;22.30;99.90;;;;;;5047824;28;20025;-74
2023/07/29 07:09:43;;;;;;;8.40;6.38;;;22.40;99.90;;;;;;5051094;28;20180;-74
2023/07/29 07:12:09;;;;;;;9.20;7.00;;;22.40;99.90;;;;;;5059872;28;20454;-73
2023/07/29 07:14:34;;;;;;;10.20;7.03;;;22.50;99.90;;;;;;5057682;28;20021;-74
2023/07/29 07:17:00;;;;;;;8.07;6.55;;;22.50;99.90;;;;;;5049786;28;20025;-74
2023/07/29 07:19:26;;;;;;;7.00;6.05;;;22.60;99.90;;;;;;5055606;28;20400;-74
2023/07/29 07:21:51;;;;;;;6.88;5.93;;;22.80;99.90;;;;;;5057424;28;20497;-74
2023/07/29 07:24:17;;;;;;;10.57;6.10;;;23.00;99.90;;;;;;5062335;28;20061;-73
2023/07/29 07:26:43;;;;;;;6.63;5.93;;;23.00;99.90;;;;;;5057167;28;20092;-74
2023/07/29 07:29:08;;;;;;;7.57;5.82;;;23.00;99.90;;;;;;5056886;28;20166;-74
2023/07/29 07:31:35;;;;;;;7.30;6.07;;;23.00;99.90;;;;;;5059991;28;20097;-74
2023/07/29 07:34:02;;;;;;;5.78;4.75;;;23.20;99.90;;;;;;5059540;28;20048;-74
2023/07/29 07:36:27;;;;;;;11.30;6.30;;;23.40;99.90;;;;;;5060712;28;20084;-75
2023/07/29 07:38:53;;;;;;;6.20;5.18;;;23.50;99.90;;;;;;5055050;28;20044;-74
2023/07/29 07:41:18;;;;;;;6.03;5.00;;;23.50;99.90;;;;;;5057095;28;20137;-74
2023/07/29 07:43:44;;;;;;;5.28;4.78;;;23.70;99.90;;;;;;5060104;28;20051;-75
2023/07/29 07:46:10;;;;;;;6.90;5.20;;;23.90;99.90;;;;;;5058199;28;20385;-75
2023/07/29 07:48:36;;;;;;;7.50;4.78;;;24.00;99.90;;;;;;5056775;28;20036;-75
2023/07/29 07:51:10;;;;;;;7.50;4.93;;;24.10;99.90;;;;;;5060254;28;20028;-75
2023/07/29 07:53:36;;;;;;;8.60;4.70;;;24.20;99.90;;;;;;5058468;28;20021;-74
2023/07/29 07:56:02;;;;;;;7.05;5.20;;;24.30;99.90;;;;;;5054577;28;20025;-75
2023/07/29 07:58:27;;;;;;;6.35;4.78;;;24.40;99.90;;;;;;5055884;28;20135;-75
2023/07/29 08:01:04;;;;;;;8.00;4.80;;;24.40;99.90;;;;;;5054856;28;20087;-75
2023/07/29 08:03:30;;;;;;;6.40;4.55;;;24.50;99.90;;;;;;5048042;28;20032;-74
2023/07/29 08:05:56;;;;;;;6.35;5.00;;;24.60;99.90;;;;;;5047823;28;20021;-74
2023/07/29 08:08:21;;;;;;;7.63;5.50;;;24.70;99.90;;;;;;5057486;28;20048;-74
2023/07/29 08:10:47;;;;;;;6.40;4.50;;;24.90;99.90;;;;;;5056533;28;20078;-75
2023/07/29 08:13:13;;;;;;;5.38;4.68;;;25.00;99.90;;;;;;5060256;28;20029;-74
2023/07/29 08:15:38;;;;;;;6.00;4.40;;;25.20;99.90;;;;;;5055991;28;20035;-75
2023/07/29 08:18:04;;;;;;;5.38;4.88;;;25.30;99.90;;;;;;5053982;28;20029;-75
2023/07/29 08:20:30;;;;;;;6.05;4.95;;;25.20;99.90;;;;;;5059036;28;20033;-75
2023/07/29 08:22:55;;;;;;;7.25;4.70;;;25.30;99.90;;;;;;5054842;28;20049;-74
2023/07/29 08:25:21;;;;;;;6.75;4.90;;;25.40;99.90;;;;;;5054790;28;20059;-75
2023/07/29 08:27:46;;;;;;;5.95;4.93;;;25.50;99.90;;;;;;5051040;28;20037;-74
2023/07/29 08:30:12;;;;;;;6.70;4.03;;;25.60;99.90;;;;;;5053852;28;20024;-75
2023/07/29 08:32:38;;;;;;;5.95;4.35;;;25.60;99.90;;;;;;5060242;28;20029;-74
2023/07/29 08:35:04;;;;;;;5.60;4.68;;;25.80;99.90;;;;;;5057065;28;20089;-74
2023/07/29 08:37:31;;;;;;;7.03;4.40;;;25.90;99.90;;;;;;5051781;28;20112;-75
2023/07/29 08:39:56;;;;;;;6.35;4.05;;;26.00;99.90;;;;;;5055990;28;20020;-74
2023/07/29 08:42:25;;;;;;;4.45;3.30;;;26.10;99.90;;;;;;5031182;28;20029;-73
2023/07/29 08:44:54;;;;;;;8.00;3.78;;;26.20;99.90;;;;;;5052759;28;20040;-74
2023/07/29 08:47:19;;;;;;;5.32;3.95;;;26.30;99.90;;;;;;5054440;28;20089;-74
2023/07/29 08:49:46;;;;;;;6.85;4.13;;;26.30;99.90;;;;;;5053945;28;20029;-74
2023/07/29 08:52:13;;;;;;;3.90;3.45;;;26.30;99.90;;;;;;5035344;28;20013;-74
2023/07/29 08:54:39;;;;;;;5.82;3.55;;;26.50;99.90;;;;;;5045094;28;20082;-73
2023/07/29 08:57:06;;;;;;;6.80;3.60;;;26.60;99.90;;;;;;5050326;28;20477;-73
2023/07/29 08:59:33;;;;;;;6.95;3.45;;;26.80;99.90;;;;;;5053142;28;20466;-74
2023/07/29 09:01:59;;;;;;;4.60;3.15;;;26.80;99.90;;;;;;5053269;28;20044;-74
2023/07/29 09:04:25;;;;;;;3.88;3.05;;;26.80;99.90;;;;;;5057640;28;20504;-74
2023/07/29 09:06:51;;;;;;;4.55;3.33;;;26.90;99.90;;;;;;5046615;28;20055;-74
2023/07/29 09:09:17;;;;;;;4.30;3.45;;;27.00;99.90;;;;;;5047710;28;20072;-74
2023/07/29 09:11:43;;;;;;;5.13;3.35;;;26.80;99.90;;;;;;5055724;28;20032;-73
2023/07/29 09:14:10;;;;;;;7.25;3.47;;;26.90;99.90;;;;;;5045494;28;20009;-74
2023/07/29 09:16:36;;;;;;;5.63;3.25;;;27.10;99.90;;;;;;5060011;28;20397;-75
2023/07/29 09:19:03;;;;;;;4.78;3.40;;;27.20;99.90;;;;;;5052509;28;20036;-72
2023/07/29 09:21:29;;;;;;;6.53;3.33;;;27.30;99.90;;;;;;5054553;28;20025;-73
2023/07/29 09:23:55;;;;;;;4.90;3.00;;;27.30;99.90;;;;;;5055485;28;20424;-74
2023/07/29 09:26:26;;;;;;;8.05;3.10;;;27.30;99.90;;;;;;5055008;28;20029;-73
2023/07/29 09:28:57;;;;;;;5.05;3.63;;;27.30;99.90;;;;;;5053463;28;20447;-76
2023/07/29 09:31:24;;;;;;;5.00;3.42;;;27.30;99.90;;;;;;5056053;28;20033;-73
2023/07/29 09:33:59;;;;;;;9.20;4.97;;;27.20;99.90;;;;;;5057251;28;20104;-74
2023/07/29 09:36:26;;;;;;;4.45;3.25;;;27.20;99.90;;;;;;5058570;28;20067;-74
2023/07/29 09:38:56;;;;;;;5.10;3.05;;;27.20;99.90;;;;;;5058845;28;20071;-74
2023/07/29 09:41:26;;;;;;;6.22;3.17;;;27.40;99.90;;;;;;5053072;28;20097;-72
2023/07/29 09:44:00;;;;;;;4.90;3.55;;;27.50;99.90;;;;;;5052972;28;20029;-75
2023/07/29 09:46:35;;;;;;;4.90;3.53;;;27.60;99.90;;;;;;5060629;28;20033;-74
2023/07/29 09:49:05;;;;;;;6.05;3.25;;;27.70;99.90;;;;;;5050666;28;20756;-74
2023/07/29 09:51:31;;;;;;;7.10;3.28;;;27.80;99.90;;;;;;5051058;28;20025;-73
2023/07/29 09:53:58;;;;;;;6.05;3.22;;;27.80;99.90;;;;;;5058125;28;20070;-74
2023/07/29 09:56:26;;;;;;;5.03;3.30;;;27.90;99.90;;;;;;5055444;28;20052;-75
2023/07/29 09:58:52;;;;;;;8.68;3.13;;;28.00;99.90;;;;;;5054242;28;20051;-74
2023/07/29 10:01:18;;;;;;;7.18;3.22;;;28.10;99.90;;;;;;5047765;28;20028;-73
2023/07/29 10:03:44;;;;;;;6.97;4.10;;;28.10;99.90;;;;;;5048601;28;20481;-73
2023/07/29 10:06:11;;;;;;;4.13;2.83;;;28.10;99.90;;;;;;5056318;28;20021;-75
2023/07/29 10:08:39;;;;;;;5.53;3.25;;;28.10;99.90;;;;;;5051672;28;20025;-75
2023/07/29 10:11:06;;;;;;;4.82;3.30;;;28.20;99.90;;;;;;5053264;28;20439;-73
2023/07/29 10:13:33;;;;;;;4.88;3.20;;;28.20;99.90;;;;;;5051810;28;20087;-73
2023/07/29 10:16:02;;;;;;;4.57;3.40;;;28.10;99.90;;;;;;5051441;28;20017;-73
2023/07/29 10:18:28;;;;;;;5.00;3.30;;;28.00;99.90;;;;;;5045514;28;20045;-73
2023/07/29 10:20:56;;;;;;;4.70;2.97;;;28.00;99.90;;;;;;5051944;28;20052;-75
2023/07/29 10:23:22;;;;;;;4.28;3.20;;;28.10;99.90;;;;;;5054680;28;20056;-73
2023/07/29 10:25:59;;;;;;;5.63;3.20;;;28.00;99.90;;;;;;5055930;28;20033;-72
2023/07/29 10:28:28;;;;;;;4.20;2.90;;;28.20;99.90;;;;;;5052915;28;20033;-72
2023/07/29 10:30:54;;;;;;;5.25;3.25;;;28.20;99.90;;;;;;5052191;28;20032;-73
2023/07/29 10:33:20;;;;;;;4.28;3.10;;;28.30;99.90;;;;;;5055517;28;20028;-73
2023/07/29 10:35:46;;;;;;;5.15;3.45;;;28.30;99.90;;;;;;5054012;28;20021;-74
2023/07/29 10:38:12;;;;;;;5.28;3.72;;;28.40;99.90;;;;;;5056725;28;20106;-74
2023/07/29 10:40:45;;;;;;;8.23;4.50;;;28.50;99.90;;;;;;5057883;28;20028;-74
2023/07/29 10:43:12;;;;;;;6.07;3.55;;;28.40;99.90;;;;;;5052620;28;20162;-76
2023/07/29 10:45:39;;;;;;;5.18;3.35;;;28.40;99.90;;;;;;5059618;28;20036;-74
2023/07/29 10:48:26;;;;;;;5.78;3.53;;;28.50;99.90;;;;;;5053500;28;20053;-75
2023/07/29 10:51:35;;;;;;;4.35;3.10;;;28.70;99.90;;;;;;5061004;28;20083;-73
2023/07/29 10:54:12;;;;;;;6.70;3.78;;;28.60;99.90;;;;;;5056117;28;20036;-75
2023/07/29 10:56:46;;;;;;;5.72;3.42;;;28.60;99.90;;;;;;5050546;28;20222;-75
2023/07/29 10:59:12;;;;;;;4.97;3.72;;;28.70;99.90;;;;;;5057511;28;20035;-74
2023/07/29 11:01:39;;;;;;;4.65;3.10;;;28.80;99.90;;;;;;5062977;28;20028;-75
2023/07/29 11:04:20;;;;;;;6.43;3.70;;;28.90;99.90;;;;;;5070855;28;20040;-75
2023/07/29 11:07:04;;;;;;;6.03;3.72;;;29.10;99.90;;;;;;5069113;28;20044;-73
2023/07/29 11:09:40;;;;;;;3.80;3.10;;;29.20;99.90;;;;;;5068761;28;20036;-74
2023/07/29 11:12:26;;;;;;;5.35;3.38;;;29.20;99.90;;;;;;5074497;28;20100;-75
2023/07/29 11:14:52;;;;;;;7.80;3.42;;;29.20;99.90;;;;;;5064096;28;20037;-75
2023/07/29 11:17:18;;;;;;;5.80;3.53;;;29.30;99.90;;;;;;5055468;28;20036;-73
2023/07/29 11:19:46;;;;;;;5.57;3.22;;;29.40;99.90;;;;;;5049999;28;20111;-73
2023/07/29 11:22:12;;;;;;;6.13;3.22;;;29.50;99.90;;;;;;5064787;28;20021;-75
2023/07/29 11:24:37;;;;;;;5.28;3.55;;;29.50;99.90;;;;;;5076067;28;20043;-75
2023/07/29 11:27:03;;;;;;;3.30;2.65;;;29.60;99.90;;;;;;5073987;28;20029;-73
2023/07/29 11:29:29;;;;;;;5.25;3.22;;;29.60;99.90;;;;;;5074680;28;20028;-74
2023/07/29 11:31:54;;;;;;;4.35;3.40;;;29.50;99.90;;;;;;5063594;28;20033;-73
2023/07/29 11:34:33;;;;;;;3.63;3.05;;;29.60;99.90;;;;;;5059093;28;20040;-73
2023/07/29 11:36:59;;;;;;;4.45;3.10;;;29.30;99.90;;;;;;5063906;28;20515;-74
2023/07/29 11:39:25;;;;;;;5.05;3.53;;;29.40;99.90;;;;;;5073032;28;20025;-74
2023/07/29 11:41:50;;;;;;;4.88;3.20;;;29.70;99.90;;;;;;5069997;28;20039;-74
2023/07/29 11:44:19;;;;;;;5.00;3.53;;;29.80;99.90;;;;;;5074309;28;20029;-72
2023/07/29 11:46:45;;;;;;;5.43;3.10;;;29.80;99.90;;;;;;5058763;28;20505;-72
2023/07/29 11:49:10;;;;;;;5.43;2.90;;;29.80;99.90;;;;;;5066779;28;20029;-72
2023/07/29 11:51:37;;;;;;;4.70;2.88;;;29.80;99.90;;;;;;5071321;28;20057;-72
2023/07/29 11:54:03;;;;;;;4.90;2.97;;;29.70;99.90;;;;;;5074508;28;20510;-73
2023/07/29 11:56:30;;;;;;;6.57;2.70;;;29.80;99.90;;;;;;5070729;28;20021;-73
2023/07/29 11:58:56;;;;;;;5.22;3.55;;;30.10;99.90;;;;;;5066063;28;20036;-72
2023/07/29 12:01:22;;;;;;;6.45;3.90;;;30.20;99.90;;;;;;5064009;28;20029;-73
2023/07/29 12:03:50;;;;;;;5.38;3.45;;;30.20;99.90;;;;;;5061235;28;20025;-73
2023/07/29 12:06:16;;;;;;;6.53;3.03;;;30.30;99.90;;;;;;5070340;28;20017;-71
2023/07/29 12:08:43;;;;;;;5.30;3.00;;;30.20;99.90;;;;;;5073537;28;20029;-73
2023/07/29 12:11:09;;;;;;;5.93;3.20;;;30.20;99.90;;;;;;5061256;28;20017;-72
2023/07/29 12:13:36;;;;;;;5.05;2.88;;;30.20;99.90;;;;;;5061399;28;20033;-72
2023/07/29 12:16:03;;;;;;;5.80;3.15;;;30.20;99.90;;;;;;5060701;28;20021;-72
2023/07/29 12:18:33;;;;;;;6.55;3.03;;;30.20;99.90;;;;;;5061764;28;20025;-72
2023/07/29 12:21:00;;;;;;;6.78;3.28;;;30.10;99.90;;;;;;5060150;28;20053;-73
2023/07/29 12:23:26;;;;;;;5.63;2.95;;;30.30;99.90;;;;;;5062545;28;20105;-73
2023/07/29 12:25:59;;;;;;;5.18;3.25;;;30.60;99.90;;;;;;5058742;28;20041;-73
2023/07/29 12:28:28;;;;;;;5.03;2.75;;;30.80;99.90;;;;;;5062858;28;20064;-72
2023/07/29 12:30:54;;;;;;;5.63;3.10;;;30.90;99.90;;;;;;5058835;28;20108;-72
2023/07/29 12:33:38;;;;;;;10.80;3.13;;;30.80;99.90;;;;;;5061167;28;20032;-72
2023/07/29 12:36:04;;;;;;;5.22;3.00;;;30.80;99.90;;;;;;5059339;28;20063;-72
2023/07/29 12:38:30;;;;;;;3.75;2.78;;;30.80;99.90;;;;;;5062414;28;20147;-72
2023/07/29 12:40:56;;;;;;;4.68;2.67;;;30.90;99.90;;;;;;5059506;28;20063;-72
2023/07/29 12:43:22;;;;;;;5.28;3.20;;;31.00;99.90;;;;;;5066341;28;20029;-72
2023/07/29 12:45:51;;;;;;;5.30;3.58;;;31.10;99.90;;;;;;5073594;28;20075;-71